createdAt,value
2023-02-13T00:01:06.614Z,7.42
2023-02-13T00:03:35.201Z,7.40
2023-02-13T00:06:02.890Z,7.29
2023-02-13T00:08:31.251Z,7.20
2023-02-13T00:10:59.274Z,7.12
2023-02-13T00:13:27.298Z,7.12
2023-02-13T00:16:00.998Z,7.03
2023-02-13T00:18:30.801Z,6.90
2023-02-13T00:21:04.504Z,6.82
2023-02-13T00:23:33.911Z,6.86
2023-02-13T00:26:07.431Z,6.88
2023-02-13T00:28:35.874Z,6.90
2023-02-13T00:31:10.917Z,6.74
2023-02-13T00:33:39.219Z,6.77
2023-02-13T00:36:14.078Z,6.77
2023-02-13T00:38:43.066Z,6.68
2023-02-13T00:41:11.584Z,6.59
2023-02-13T00:43:39.651Z,6.44
2023-02-13T00:46:07.488Z,6.40
2023-02-13T00:48:36.254Z,6.47
2023-02-13T00:51:04.951Z,6.43
2023-02-13T00:53:34.225Z,6.32
2023-02-13T00:56:02.324Z,6.30
2023-02-13T00:58:30.281Z,6.28
2023-02-13T01:00:59.924Z,6.29
2023-02-13T01:03:28.945Z,6.18
2023-02-13T01:05:58.387Z,6.20
2023-02-13T01:08:28.437Z,6.16
2023-02-13T01:10:57.104Z,6.15
2023-02-13T01:13:25.932Z,6.17
2023-02-13T01:15:54.699Z,6.00
2023-02-13T01:18:22.793Z,5.84
2023-02-13T01:21:08.069Z,5.85
2023-02-13T01:23:38.962Z,6.00
2023-02-13T01:26:11.505Z,5.73
2023-02-13T01:28:39.160Z,5.81
2023-02-13T01:31:06.966Z,5.78
2023-02-13T01:33:36.195Z,5.73
2023-02-13T01:36:10.043Z,5.80
2023-02-13T01:38:39.026Z,5.95
2023-02-13T01:41:07.407Z,5.87
2023-02-13T01:43:52.497Z,5.78
2023-02-13T01:46:36.003Z,5.79
2023-02-13T01:49:34.123Z,5.90
2023-02-13T01:52:03.271Z,5.92
2023-02-13T01:54:33.694Z,5.99
2023-02-13T01:57:18.693Z,5.94
2023-02-13T01:59:56.795Z,6.01
2023-02-13T02:02:24.807Z,5.98
2023-02-13T02:04:53.516Z,6.03
2023-02-13T02:07:26.642Z,5.95
2023-02-13T02:09:59.648Z,5.92
2023-02-13T02:12:48.471Z,5.83
2023-02-13T02:15:18.892Z,5.86
2023-02-13T02:17:47.186Z,5.77
2023-02-13T02:20:40.732Z,5.65
2023-02-13T02:23:42.064Z,5.78
2023-02-13T02:26:32.755Z,5.78
2023-02-13T02:29:09.992Z,5.68
2023-02-13T02:32:02.492Z,5.72
2023-02-13T02:34:54.790Z,5.63
2023-02-13T02:37:40.857Z,5.62
2023-02-13T02:40:23.639Z,5.59
2023-02-13T02:43:13.908Z,5.61
2023-02-13T02:45:58.236Z,5.62
2023-02-13T02:49:06.950Z,5.47
2023-02-13T02:51:43.554Z,5.43
2023-02-13T02:54:34.708Z,5.32
2023-02-13T02:57:18.629Z,5.34
2023-02-13T03:00:13.231Z,5.38
2023-02-13T03:02:59.816Z,5.34
2023-02-13T03:05:53.426Z,5.29
2023-02-13T03:08:41.543Z,5.29
2023-02-13T03:11:28.751Z,5.28
2023-02-13T03:14:01.004Z,5.32
2023-02-13T03:16:48.516Z,5.28
2023-02-13T03:20:14.119Z,5.25
2023-02-13T03:22:45.446Z,5.25
2023-02-13T03:25:30.264Z,5.21
2023-02-13T03:28:20.555Z,5.11
2023-02-13T03:30:53.899Z,5.17
2023-02-13T03:33:42.754Z,5.12
2023-02-13T03:36:47.614Z,5.22
2023-02-13T03:39:43.607Z,5.15
2023-02-13T03:42:36.466Z,5.15
2023-02-13T03:45:31.659Z,5.25
2023-02-13T03:48:09.998Z,5.21
2023-02-13T03:50:42.194Z,5.14
2023-02-13T03:53:14.543Z,5.07
2023-02-13T03:56:06.618Z,5.15
2023-02-13T03:58:56.701Z,5.09
2023-02-13T04:01:28.640Z,5.01
2023-02-13T04:04:04.689Z,4.91
2023-02-13T04:06:46.882Z,4.94
2023-02-13T04:09:14.984Z,4.88
2023-02-13T04:11:48.730Z,4.85
2023-02-13T04:14:24.397Z,4.80
2023-02-13T04:17:05.862Z,4.74
2023-02-13T04:19:33.993Z,4.83
2023-02-13T04:22:03.060Z,4.79
2023-02-13T04:24:31.608Z,4.70
2023-02-13T04:27:00.136Z,4.67
2023-02-13T04:29:28.573Z,4.80
2023-02-13T04:31:56.599Z,4.72
2023-02-13T04:34:24.743Z,4.71
2023-02-13T04:36:52.305Z,4.73
2023-02-13T04:39:19.906Z,4.76
2023-02-13T04:41:48.445Z,4.77
2023-02-13T04:44:16.864Z,4.76
2023-02-13T04:46:44.913Z,4.73
2023-02-13T04:49:12.724Z,4.63
2023-02-13T04:51:41.725Z,4.55
2023-02-13T04:54:11.860Z,4.59
2023-02-13T04:56:39.470Z,4.60
2023-02-13T04:59:07.448Z,4.65
2023-02-13T05:01:35.562Z,4.56
2023-02-13T05:04:03.583Z,4.56
2023-02-13T05:06:31.056Z,4.60
2023-02-13T05:08:58.982Z,4.60
2023-02-13T05:11:26.620Z,4.50
2023-02-13T05:13:54.613Z,4.43
2023-02-13T05:16:22.955Z,4.54
2023-02-13T05:18:54.843Z,4.47
2023-02-13T05:21:41.617Z,4.37
2023-02-13T05:24:09.258Z,4.32
2023-02-13T05:26:37.453Z,4.30
2023-02-13T05:29:22.502Z,4.22
2023-02-13T05:31:53.561Z,4.26
2023-02-13T05:34:23.522Z,4.25
2023-02-13T05:36:51.496Z,4.29
2023-02-13T05:39:19.456Z,4.19
2023-02-13T05:41:49.608Z,4.09
2023-02-13T05:44:17.687Z,4.17
2023-02-13T05:46:45.695Z,4.17
2023-02-13T05:49:14.773Z,4.10
2023-02-13T05:51:43.836Z,4.18
2023-02-13T05:54:11.824Z,4.16
2023-02-13T05:56:39.315Z,4.03
2023-02-13T05:59:16.136Z,4.06
2023-02-13T06:01:47.121Z,3.96
2023-02-13T06:04:15.312Z,3.99
2023-02-13T06:06:44.906Z,3.94
2023-02-13T06:09:12.516Z,3.87
2023-02-13T06:11:40.045Z,3.75
2023-02-13T06:14:08.048Z,3.81
2023-02-13T06:16:36.197Z,3.63
2023-02-13T06:19:04.745Z,3.71
2023-02-13T06:21:33.607Z,3.68
2023-02-13T06:24:01.590Z,3.72
2023-02-13T06:26:29.625Z,3.74
2023-02-13T06:28:57.214Z,3.75
2023-02-13T06:31:25.787Z,3.81
2023-02-13T06:33:53.306Z,3.77
2023-02-13T06:36:20.971Z,3.79
2023-02-13T06:38:48.920Z,3.90
2023-02-13T06:41:17.005Z,3.78
2023-02-13T06:43:44.729Z,3.71
2023-02-13T06:46:12.319Z,3.91
2023-02-13T06:48:40.537Z,4.02
2023-02-13T06:51:08.559Z,4.00
2023-02-13T06:54:02.759Z,4.24
2023-02-13T06:56:30.743Z,4.40
2023-02-13T06:58:58.399Z,4.42
2023-02-13T07:01:26.325Z,4.44
2023-02-13T07:03:53.917Z,4.49
2023-02-13T07:06:22.132Z,4.54
2023-02-13T07:08:55.205Z,4.72
2023-02-13T07:11:25.270Z,4.85
2023-02-13T07:13:53.283Z,4.97
2023-02-13T07:16:21.588Z,5.06
2023-02-13T07:18:50.017Z,5.30
2023-02-13T07:21:17.951Z,5.42
2023-02-13T07:23:46.139Z,5.48
2023-02-13T07:26:13.739Z,5.44
2023-02-13T07:28:41.780Z,5.65
2023-02-13T07:31:11.376Z,5.78
2023-02-13T07:33:38.992Z,5.94
2023-02-13T07:36:07.816Z,6.13
2023-02-13T07:38:35.620Z,6.17
2023-02-13T07:41:04.341Z,6.27
2023-02-13T07:43:32.708Z,6.41
2023-02-13T07:46:02.059Z,6.62
2023-02-13T07:48:31.584Z,6.88
2023-02-13T07:51:01.483Z,7.01
2023-02-13T07:53:29.645Z,7.03
2023-02-13T07:55:57.440Z,7.19
2023-02-13T07:58:26.629Z,7.41
2023-02-13T08:00:55.051Z,7.67
2023-02-13T08:03:22.833Z,7.80
2023-02-13T08:05:50.811Z,7.79
2023-02-13T08:08:18.758Z,7.85
2023-02-13T08:11:05.409Z,7.82
2023-02-13T08:13:33.689Z,8.00
2023-02-13T08:16:01.597Z,7.83
2023-02-13T08:18:29.676Z,8.03
2023-02-13T08:20:57.174Z,8.09
2023-02-13T08:23:25.578Z,8.33
2023-02-13T08:25:55.006Z,8.65
2023-02-13T08:28:23.948Z,8.78
2023-02-13T08:30:51.581Z,8.99
2023-02-13T08:33:20.203Z,9.17
2023-02-13T08:35:48.246Z,9.48
2023-02-13T08:38:16.290Z,9.62
2023-02-13T08:40:44.553Z,9.29
2023-02-13T08:43:12.070Z,9.62
2023-02-13T08:45:40.180Z,9.41
2023-02-13T08:48:08.209Z,9.69
2023-02-13T08:50:37.136Z,9.90
2023-02-13T08:53:05.416Z,10.25
2023-02-13T08:55:33.353Z,10.59
2023-02-13T08:58:02.917Z,10.60
2023-02-13T09:00:31.928Z,10.69
2023-02-13T09:03:04.736Z,10.77
2023-02-13T09:05:33.144Z,11.30
2023-02-13T09:08:03.339Z,11.56
2023-02-13T09:10:33.251Z,12.47
2023-02-13T09:13:01.461Z,12.67
2023-02-13T09:15:29.214Z,12.90
2023-02-13T09:17:57.871Z,13.74
2023-02-13T09:20:26.562Z,13.13
2023-02-13T09:22:56.035Z,14.90
2023-02-13T09:25:24.802Z,13.58
2023-02-13T09:27:53.030Z,13.00
2023-02-13T09:30:24.046Z,14.17
2023-02-13T09:32:53.807Z,15.06
2023-02-13T09:35:23.193Z,14.26
2023-02-13T09:37:51.647Z,16.10
2023-02-13T09:40:29.432Z,17.62
2023-02-13T09:43:26.685Z,18.18
2023-02-13T09:45:59.172Z,16.98
2023-02-13T09:48:33.702Z,18.39
2023-02-13T09:51:01.481Z,15.48
2023-02-13T09:53:33.512Z,15.45
2023-02-13T09:56:14.603Z,17.17
2023-02-13T09:58:47.916Z,17.78
2023-02-13T10:01:31.141Z,15.99
2023-02-13T10:04:26.657Z,17.37
2023-02-13T10:07:13.789Z,18.54
2023-02-13T10:09:56.111Z,19.03
2023-02-13T10:12:49.655Z,19.19
2023-02-13T10:15:31.294Z,18.96
2023-02-13T10:18:05.431Z,17.64
2023-02-13T10:20:50.855Z,18.34
2023-02-13T10:23:27.083Z,17.84
2023-02-13T10:26:04.488Z,16.37
2023-02-13T10:29:09.979Z,17.44
2023-02-13T10:31:40.667Z,18.23
2023-02-13T10:34:15.518Z,18.52
2023-02-13T10:36:48.415Z,18.76
2023-02-13T10:39:29.393Z,19.03
2023-02-13T10:42:24.676Z,18.27
2023-02-13T10:44:58.904Z,18.08
2023-02-13T10:47:32.742Z,16.01
2023-02-13T10:50:37.899Z,17.11
2023-02-13T10:53:17.601Z,18.28
2023-02-13T10:56:01.450Z,17.17
2023-02-13T10:58:32.496Z,18.54
2023-02-13T11:01:21.646Z,18.30
2023-02-13T11:04:04.725Z,18.49
2023-02-13T11:06:35.714Z,18.44
2023-02-13T11:09:06.747Z,17.94
2023-02-13T11:11:38.233Z,17.76
2023-02-13T11:14:11.798Z,17.42
2023-02-13T11:16:44.020Z,16.97
2023-02-13T11:19:19.429Z,17.28
2023-02-13T11:21:54.279Z,16.63
2023-02-13T11:24:25.544Z,15.97
2023-02-13T11:26:59.361Z,17.13
2023-02-13T11:29:35.318Z,16.13
2023-02-13T11:32:12.769Z,16.59
2023-02-13T11:34:41.872Z,16.31
2023-02-13T11:37:13.230Z,16.90
2023-02-13T11:39:42.810Z,18.08
2023-02-13T11:42:34.692Z,18.15
2023-02-13T11:45:21.098Z,17.36
2023-02-13T11:47:49.676Z,16.35
2023-02-13T11:50:22.906Z,16.41
2023-02-13T11:53:01.704Z,16.45
2023-02-13T11:55:35.340Z,16.89
2023-02-13T11:58:25.657Z,17.20
2023-02-13T12:01:22.548Z,17.37
2023-02-13T12:04:18.078Z,17.76
2023-02-13T12:07:20.491Z,17.44
2023-02-13T12:10:25.077Z,16.09
2023-02-13T12:13:11.699Z,15.82
2023-02-13T12:15:40.675Z,16.94
2023-02-13T12:18:29.758Z,16.04
2023-02-13T12:21:09.441Z,16.78
2023-02-13T12:24:09.118Z,17.58
2023-02-13T12:26:52.452Z,17.11
2023-02-13T12:29:52.066Z,17.08
2023-02-13T12:32:25.765Z,17.71
2023-02-13T12:35:29.492Z,18.37
2023-02-13T12:38:15.511Z,17.76
2023-02-13T12:40:58.701Z,17.39
2023-02-13T12:44:00.980Z,17.27
2023-02-13T12:46:33.157Z,17.10
2023-02-13T12:49:15.891Z,17.62
2023-02-13T12:52:07.905Z,17.68
2023-02-13T12:54:45.113Z,17.49
2023-02-13T12:57:28.345Z,17.47
2023-02-13T13:00:17.636Z,17.47
2023-02-13T13:02:50.557Z,16.89
2023-02-13T13:05:21.101Z,17.56
2023-02-13T13:08:26.060Z,18.70
2023-02-13T13:10:54.160Z,19.07
2023-02-13T13:13:54.537Z,19.44
2023-02-13T13:16:43.064Z,17.98
2023-02-13T13:19:10.913Z,18.63
2023-02-13T13:22:13.856Z,18.13
2023-02-13T13:25:01.716Z,17.99
2023-02-13T13:27:40.555Z,19.13
2023-02-13T13:30:18.825Z,19.51
2023-02-13T13:32:52.159Z,19.83
2023-02-13T13:35:21.532Z,18.56
2023-02-13T13:38:03.495Z,19.95
2023-02-13T13:41:06.511Z,18.22
2023-02-13T13:43:34.059Z,19.44
2023-02-13T13:46:19.651Z,20.05
2023-02-13T13:49:14.581Z,18.61
2023-02-13T13:51:43.240Z,19.89
2023-02-13T13:54:11.380Z,19.97
2023-02-13T13:56:54.150Z,20.36
2023-02-13T13:59:34.740Z,20.45
2023-02-13T14:02:22.996Z,19.08
2023-02-13T14:05:27.963Z,21.76
2023-02-13T14:08:18.288Z,22.37
2023-02-13T14:10:58.451Z,22.89
2023-02-13T14:13:35.929Z,22.01
2023-02-13T14:16:05.943Z,23.82
2023-02-13T14:18:35.485Z,25.26
2023-02-13T14:21:05.534Z,24.61
2023-02-13T14:23:34.076Z,23.28
2023-02-13T14:26:26.099Z,23.45
2023-02-13T14:28:54.082Z,24.00
2023-02-13T14:31:30.227Z,21.99
2023-02-13T14:34:05.196Z,22.23
2023-02-13T14:36:38.048Z,23.70
2023-02-13T14:39:17.745Z,24.81
2023-02-13T14:41:54.165Z,24.10
2023-02-13T14:44:36.938Z,22.55
2023-02-13T14:47:18.838Z,23.76
2023-02-13T14:49:50.252Z,22.21
2023-02-13T14:52:27.646Z,22.13
2023-02-13T14:55:14.649Z,22.05
2023-02-13T14:57:50.727Z,23.59
2023-02-13T15:00:36.382Z,23.05
2023-02-13T15:03:24.384Z,24.31
2023-02-13T15:05:57.032Z,24.58
2023-02-13T15:08:34.873Z,22.60
2023-02-13T15:11:02.684Z,21.26
2023-02-13T15:13:37.496Z,22.35
2023-02-13T15:16:10.207Z,23.23
2023-02-13T15:18:50.085Z,22.63
2023-02-13T15:21:21.010Z,23.70
2023-02-13T15:23:55.771Z,21.50
2023-02-13T15:26:28.030Z,19.25
2023-02-13T15:29:26.680Z,19.07
2023-02-13T15:31:58.899Z,17.17
2023-02-13T15:34:34.424Z,16.38
2023-02-13T15:37:03.210Z,15.74
2023-02-13T15:39:33.081Z,15.46
2023-02-13T15:42:03.282Z,15.19
2023-02-13T15:44:37.668Z,15.01
2023-02-13T15:47:17.973Z,14.55
2023-02-13T15:49:48.094Z,14.54
2023-02-13T15:52:24.043Z,14.45
2023-02-13T15:54:55.926Z,14.23
2023-02-13T15:57:25.761Z,14.20
2023-02-13T15:59:57.132Z,14.06
2023-02-13T16:02:46.394Z,14.00
2023-02-13T16:05:19.989Z,13.96
2023-02-13T16:07:57.823Z,13.93
2023-02-13T16:10:36.567Z,13.76
2023-02-13T16:13:18.952Z,13.56
2023-02-13T16:15:47.256Z,13.30
2023-02-13T16:18:20.268Z,13.19
2023-02-13T16:20:54.395Z,13.16
2023-02-13T16:23:22.539Z,13.11
2023-02-13T16:25:53.097Z,13.12
2023-02-13T16:28:25.619Z,12.88
2023-02-13T16:31:01.528Z,12.91
2023-02-13T16:33:32.706Z,12.78
2023-02-13T16:36:18.224Z,12.72
2023-02-13T16:38:48.078Z,12.58
2023-02-13T16:41:19.606Z,12.49
2023-02-13T16:44:00.181Z,12.39
2023-02-13T16:46:28.038Z,12.29
2023-02-13T16:49:01.686Z,12.18
2023-02-13T16:51:48.699Z,12.00
2023-02-13T16:54:25.613Z,11.87
2023-02-13T16:56:59.057Z,11.69
2023-02-13T16:59:41.852Z,11.64
2023-02-13T17:02:15.854Z,11.56
2023-02-13T17:04:55.819Z,11.48
2023-02-13T17:07:27.266Z,11.35
2023-02-13T17:09:58.324Z,11.30
2023-02-13T17:12:28.146Z,11.21
2023-02-13T17:14:59.999Z,11.12
2023-02-13T17:17:30.467Z,11.06
2023-02-13T17:20:02.336Z,11.02
2023-02-13T17:22:37.484Z,10.90
2023-02-13T17:25:33.103Z,10.96
2023-02-13T17:28:10.810Z,10.84
2023-02-13T17:30:38.542Z,10.74
2023-02-13T17:33:12.439Z,10.68
2023-02-13T17:35:41.196Z,10.60
2023-02-13T17:38:10.121Z,10.61
2023-02-13T17:40:37.797Z,10.58
2023-02-13T17:43:05.846Z,10.64
2023-02-13T17:45:35.784Z,10.47
2023-02-13T17:48:04.963Z,10.34
2023-02-13T17:50:34.976Z,10.26
2023-02-13T17:53:09.227Z,10.25
2023-02-13T17:55:36.744Z,10.15
2023-02-13T17:58:04.658Z,10.16
2023-02-13T18:00:33.924Z,10.09
2023-02-13T18:03:02.357Z,10.07
2023-02-13T18:05:31.301Z,10.04
2023-02-13T18:08:02.108Z,9.98
2023-02-13T18:10:33.384Z,9.97
2023-02-13T18:13:04.542Z,9.88
2023-02-13T18:15:34.329Z,9.84
2023-02-13T18:18:03.286Z,9.77
2023-02-13T18:20:30.921Z,9.75
2023-02-13T18:22:59.143Z,9.69
2023-02-13T18:25:27.653Z,9.59
2023-02-13T18:27:55.841Z,9.55
2023-02-13T18:30:25.136Z,9.52
2023-02-13T18:32:55.026Z,9.54
2023-02-13T18:35:23.702Z,9.50
2023-02-13T18:37:51.989Z,9.46
2023-02-13T18:40:20.736Z,9.32
2023-02-13T18:42:51.160Z,9.21
2023-02-13T18:45:19.691Z,9.09
2023-02-13T18:47:47.631Z,9.16
2023-02-13T18:50:15.663Z,9.07
2023-02-13T18:52:43.833Z,8.96
2023-02-13T18:55:12.469Z,8.89
2023-02-13T18:57:43.516Z,8.91
2023-02-13T19:00:14.379Z,8.80
2023-02-13T19:02:42.525Z,8.72
2023-02-13T19:05:10.101Z,8.79
2023-02-13T19:07:38.553Z,8.72
2023-02-13T19:10:07.154Z,8.72
2023-02-13T19:12:35.605Z,8.68
2023-02-13T19:15:05.088Z,8.60
2023-02-13T19:17:35.103Z,8.53
2023-02-13T19:20:03.040Z,8.50
2023-02-13T19:22:30.739Z,8.42
2023-02-13T19:24:58.870Z,8.41
2023-02-13T19:27:26.869Z,8.37
2023-02-13T19:29:54.379Z,8.30
2023-02-13T19:32:22.450Z,8.21
2023-02-13T19:34:50.335Z,8.16
2023-02-13T19:37:18.676Z,8.15
2023-02-13T19:39:46.223Z,8.09
2023-02-13T19:42:14.322Z,8.00
2023-02-13T19:44:42.078Z,7.98
2023-02-13T19:47:10.220Z,8.00
2023-02-13T19:49:37.863Z,7.95
2023-02-13T19:52:05.935Z,8.06
2023-02-13T19:54:34.177Z,8.05
2023-02-13T19:57:05.212Z,7.80
2023-02-13T19:59:33.764Z,7.86
2023-02-13T20:02:01.553Z,7.81
2023-02-13T20:04:29.712Z,7.76
2023-02-13T20:06:58.432Z,7.64
2023-02-13T20:09:26.779Z,7.62
2023-02-13T20:11:54.835Z,7.58
2023-02-13T20:14:23.848Z,7.65
2023-02-13T20:16:51.841Z,7.69
2023-02-13T20:19:19.399Z,7.56
2023-02-13T20:21:47.569Z,7.66
2023-02-13T20:24:15.689Z,7.57
2023-02-13T20:26:44.252Z,7.55
2023-02-13T20:29:12.521Z,7.73
2023-02-13T20:31:41.603Z,7.70
2023-02-13T20:34:10.116Z,7.55
2023-02-13T20:36:38.327Z,7.32
2023-02-13T20:39:07.806Z,7.36
2023-02-13T20:41:38.445Z,7.31
2023-02-13T20:44:10.823Z,7.32
2023-02-13T20:46:39.872Z,7.26
2023-02-13T20:49:10.468Z,7.15
2023-02-13T20:51:38.996Z,7.13
2023-02-13T20:54:06.851Z,7.02
2023-02-13T20:56:34.835Z,7.08
2023-02-13T20:59:05.356Z,7.16
2023-02-13T21:01:40.469Z,7.24
2023-02-13T21:04:11.284Z,7.16
2023-02-13T21:06:41.412Z,6.94
2023-02-13T21:09:10.702Z,6.79
2023-02-13T21:11:43.265Z,6.74
2023-02-13T21:14:14.304Z,6.76
2023-02-13T21:16:43.157Z,6.82
2023-02-13T21:19:17.799Z,6.82
2023-02-13T21:21:46.664Z,6.78
2023-02-13T21:24:22.908Z,6.76
2023-02-13T21:26:52.813Z,6.73
2023-02-13T21:29:22.303Z,6.71
2023-02-13T21:31:51.269Z,6.60
2023-02-13T21:34:19.953Z,6.64
2023-02-13T21:36:47.811Z,6.77
2023-02-13T21:39:15.953Z,6.72
2023-02-13T21:41:45.117Z,6.61
2023-02-13T21:44:15.211Z,6.59
2023-02-13T21:46:45.586Z,6.53
2023-02-13T21:49:16.676Z,6.64
2023-02-13T21:51:44.512Z,6.62
2023-02-13T21:54:12.766Z,6.52
2023-02-13T21:56:42.514Z,6.39
2023-02-13T21:59:14.601Z,6.43
2023-02-13T22:01:48.326Z,6.32
2023-02-13T22:04:17.870Z,6.52
2023-02-13T22:06:51.053Z,6.53
2023-02-13T22:09:20.426Z,6.54
2023-02-13T22:11:50.937Z,6.46
2023-02-13T22:14:19.736Z,6.44
2023-02-13T22:16:50.945Z,6.39
2023-02-13T22:19:21.410Z,6.34
2023-02-13T22:21:50.328Z,6.29
2023-02-13T22:24:18.100Z,6.22
2023-02-13T22:26:45.737Z,6.05
2023-02-13T22:29:15.871Z,6.25
2023-02-13T22:31:45.067Z,6.40
2023-02-13T22:34:14.082Z,6.30
2023-02-13T22:36:42.911Z,6.17
2023-02-13T22:39:12.807Z,6.19
2023-02-13T22:41:41.599Z,6.23
2023-02-13T22:44:09.754Z,6.36
2023-02-13T22:46:38.056Z,6.43
2023-02-13T22:49:06.680Z,6.42
2023-02-13T22:51:36.507Z,6.51
2023-02-13T22:54:05.432Z,6.36
2023-02-13T22:56:33.974Z,6.35
2023-02-13T22:59:01.756Z,6.47
2023-02-13T23:01:30.758Z,6.40
2023-02-13T23:03:59.455Z,6.27
2023-02-13T23:06:27.287Z,6.25
2023-02-13T23:08:55.813Z,6.24
2023-02-13T23:11:44.966Z,6.29
2023-02-13T23:14:13.818Z,6.28
2023-02-13T23:17:01.185Z,6.26
2023-02-13T23:19:30.235Z,6.22
2023-02-13T23:21:59.066Z,6.23
2023-02-13T23:24:29.061Z,6.28
2023-02-13T23:26:57.050Z,6.27
2023-02-13T23:29:25.252Z,6.19
2023-02-13T23:31:53.798Z,6.17
2023-02-13T23:34:21.674Z,6.13
2023-02-13T23:36:49.240Z,6.07
2023-02-13T23:39:17.197Z,6.14
2023-02-13T23:41:45.633Z,6.19
2023-02-13T23:44:13.248Z,6.11
2023-02-13T23:46:40.885Z,5.97
2023-02-13T23:49:08.754Z,5.99
2023-02-13T23:51:37.084Z,5.97
2023-02-13T23:54:05.743Z,6.05
2023-02-13T23:56:33.320Z,6.12
2023-02-13T23:59:00.939Z,6.04
